Time;durP1;ratioP1;P1;durP2;ratioP2;P2;SDS_P1;SDS_P2;PMS_P1;PMS_P2;Temp;Humidity;BMP_temperature;BMP_pressure;BME280_temperature;BME280_humidity;BME280_pressure;Samples;Min_cycle;Max_cycle;Signal;HPM_P1;HPM_P2
2023/03/15 00:01:36;;;;;;;10.53;9.03;;;1.20;92.00;;;;;;4976596;28;20225;-91
2023/03/15 00:04:04;;;;;;;13.43;8.67;;;1.20;92.00;;;;;;4976526;28;20287;-91
2023/03/15 00:06:32;;;;;;;12.87;8.10;;;1.10;91.90;;;;;;4994148;28;20655;-91
2023/03/15 00:09:04;;;;;;;10.13;8.77;;;1.20;92.00;;;;;;4993974;28;20171;-91
2023/03/15 00:11:30;;;;;;;9.30;8.33;;;1.10;92.00;;;;;;4976748;28;20251;-91
2023/03/15 00:13:57;;;;;;;10.70;8.90;;;1.00;92.00;;;;;;4976457;28;20198;-91
2023/03/15 00:16:26;;;;;;;12.90;9.03;;;1.10;92.00;;;;;;4976514;28;20176;-91
2023/03/15 00:18:52;;;;;;;11.87;9.43;;;1.10;92.10;;;;;;4994049;28;20180;-91
2023/03/15 00:21:18;;;;;;;10.17;9.10;;;1.00;92.00;;;;;;4994389;28;20200;-91
2023/03/15 00:23:44;;;;;;;10.83;9.60;;;1.10;92.00;;;;;;4993749;28;20540;-90
2023/03/15 00:26:09;;;;;;;16.67;9.47;;;1.00;92.10;;;;;;4995305;28;20169;-91
2023/03/15 00:28:35;;;;;;;13.30;10.03;;;1.00;92.20;;;;;;4978211;28;20182;-90
2023/03/15 00:31:23;;;;;;;11.57;10.20;;;1.10;92.10;;;;;;4977816;28;20654;-91
2023/03/15 00:33:52;;;;;;;15.73;9.93;;;1.10;92.10;;;;;;4977009;28;20692;-91
2023/03/15 00:36:22;;;;;;;10.77;9.40;;;1.10;92.20;;;;;;4977289;28;20186;-90
2023/03/15 00:38:48;;;;;;;10.43;8.50;;;1.10;92.20;;;;;;4976579;28;20220;-90
2023/03/15 00:41:17;;;;;;;9.87;9.17;;;1.10;92.10;;;;;;4976560;28;20718;-91
2023/03/15 00:43:43;;;;;;;9.50;8.80;;;1.20;92.10;;;;;;4976593;28;20265;-91
2023/03/15 00:46:10;;;;;;;9.80;8.80;;;1.20;92.10;;;;;;4978198;28;20251;-92
2023/03/15 00:51:25;;;;;;;19.83;9.20;;;1.20;92.10;;;;;;5003300;28;20222;-91
2023/03/15 00:53:52;;;;;;;14.70;10.30;;;1.20;92.00;;;;;;4978960;28;20229;-91
2023/03/15 00:56:26;;;;;;;13.50;9.13;;;1.20;92.00;;;;;;4979649;28;20219;-90
2023/03/15 00:58:52;;;;;;;10.50;9.67;;;1.10;92.10;;;;;;4993369;28;20200;-91
2023/03/15 01:01:21;;;;;;;14.13;10.77;;;1.10;92.20;;;;;;4978348;28;20204;-92
2023/03/15 01:03:47;;;;;;;11.97;10.70;;;1.10;92.40;;;;;;4979529;28;20204;-91
2023/03/15 01:06:15;;;;;;;11.57;10.20;;;1.10;92.50;;;;;;4996862;28;20176;-91
2023/03/15 01:08:42;;;;;;;10.80;9.73;;;1.00;92.70;;;;;;4997219;28;20209;-92
2023/03/15 01:11:14;;;;;;;10.73;9.63;;;1.00;92.80;;;;;;4979553;28;20651;-92
2023/03/15 01:13:39;;;;;;;12.27;11.17;;;0.90;92.90;;;;;;4996986;28;20205;-92
2023/03/15 01:16:05;;;;;;;12.83;11.57;;;0.90;93.00;;;;;;4979309;28;20180;-91
2023/03/15 01:18:31;;;;;;;11.87;10.73;;;0.90;93.00;;;;;;4979557;28;20583;-91
2023/03/15 01:20:57;;;;;;;13.90;12.90;;;0.80;93.20;;;;;;4996681;28;20201;-91
2023/03/15 01:23:23;;;;;;;12.73;11.73;;;0.70;93.40;;;;;;4979874;28;20200;-92
2023/03/15 01:25:49;;;;;;;16.93;15.33;;;0.70;93.50;;;;;;4979244;28;20697;-92
2023/03/15 01:28:15;;;;;;;14.00;12.87;;;0.80;93.70;;;;;;4981030;28;20202;-92
2023/03/15 01:30:48;;;;;;;14.10;13.00;;;0.80;93.70;;;;;;4979803;28;20226;-93
2023/03/15 01:33:14;;;;;;;15.23;14.13;;;0.80;93.80;;;;;;4997546;28;20168;-88
2023/03/15 01:35:39;;;;;;;14.77;13.53;;;0.80;93.80;;;;;;4998639;28;20256;-93
2023/03/15 01:38:05;;;;;;;14.30;13.27;;;0.80;93.90;;;;;;4980061;28;20181;-92
2023/03/15 01:40:30;;;;;;;15.33;14.33;;;0.80;94.00;;;;;;4979632;28;20275;-91
2023/03/15 01:43:05;;;;;;;16.43;15.27;;;0.80;94.10;;;;;;4980725;28;20180;-92
2023/03/15 01:45:55;;;;;;;14.80;13.73;;;0.80;94.10;;;;;;4997570;28;20204;-91
2023/03/15 01:48:25;;;;;;;16.47;15.33;;;0.80;94.20;;;;;;4981177;28;20208;-90
2023/03/15 01:50:53;;;;;;;15.70;14.50;;;0.80;94.20;;;;;;4979655;28;20189;-92
2023/03/15 01:53:20;;;;;;;18.43;17.03;;;0.80;94.30;;;;;;4997337;28;20203;-92
2023/03/15 01:55:46;;;;;;;18.40;16.70;;;0.90;94.30;;;;;;4979555;28;20659;-92
2023/03/15 01:58:12;;;;;;;18.37;16.93;;;0.90;94.30;;;;;;4997569;28;20226;-92
2023/03/15 02:00:37;;;;;;;17.33;15.83;;;0.90;94.30;;;;;;4980316;28;20267;-92
2023/03/15 02:03:08;;;;;;;17.47;16.27;;;0.90;94.30;;;;;;4980158;28;20165;-92
2023/03/15 02:05:38;;;;;;;18.33;16.67;;;0.90;94.20;;;;;;4980076;28;20163;-92
2023/03/15 02:08:07;;;;;;;18.00;16.67;;;1.00;94.20;;;;;;4979383;28;20200;-92
2023/03/15 02:10:44;;;;;;;20.33;18.27;;;0.90;94.10;;;;;;4979874;28;20275;-92
2023/03/15 02:13:13;;;;;;;21.13;19.03;;;0.80;94.20;;;;;;4978815;28;20254;-92
2023/03/15 02:15:45;;;;;;;21.57;19.77;;;0.80;94.20;;;;;;4979646;28;20213;-92
2023/03/15 02:18:11;;;;;;;19.70;18.23;;;0.90;94.30;;;;;;4996697;28;20213;-92
2023/03/15 02:20:56;;;;;;;21.20;19.63;;;0.90;94.20;;;;;;4979181;28;20260;-92
2023/03/15 02:23:23;;;;;;;21.23;19.63;;;1.00;94.20;;;;;;4979162;28;20187;-92
2023/03/15 02:25:57;;;;;;;21.77;19.73;;;1.00;94.20;;;;;;4979114;28;20245;-92
2023/03/15 02:28:24;;;;;;;21.53;19.73;;;0.90;94.20;;;;;;4978890;28;20191;-92
2023/03/15 02:30:50;;;;;;;19.20;18.00;;;0.90;94.20;;;;;;4979073;28;20209;-92
2023/03/15 02:33:32;;;;;;;21.03;19.33;;;0.90;94.10;;;;;;4978607;28;20650;-92
2023/03/15 02:36:17;;;;;;;21.33;19.80;;;0.90;94.10;;;;;;4979884;28;20180;-92
2023/03/15 02:38:43;;;;;;;19.83;18.43;;;0.90;94.10;;;;;;4996434;28;20229;-92
2023/03/15 02:41:09;;;;;;;17.03;15.70;;;1.00;94.10;;;;;;4979213;28;20239;-92
2023/03/15 02:43:35;;;;;;;20.47;18.63;;;1.00;94.10;;;;;;4978496;28;20208;-91
2023/03/15 02:46:02;;;;;;;18.87;17.17;;;1.00;94.00;;;;;;4995894;28;20189;-92
2023/03/15 02:48:30;;;;;;;21.37;19.37;;;0.90;94.00;;;;;;4979000;28;20619;-92
2023/03/15 02:50:56;;;;;;;21.63;19.73;;;0.90;94.00;;;;;;4995481;28;20641;-92
2023/03/15 02:53:22;;;;;;;23.10;21.40;;;1.00;94.00;;;;;;4978166;28;20219;-92
2023/03/15 02:55:47;;;;;;;20.43;18.47;;;0.80;93.90;;;;;;4979207;28;20279;-92
2023/03/15 02:58:13;;;;;;;20.23;18.63;;;0.90;94.00;;;;;;4978958;28;20207;-92
2023/03/15 03:00:39;;;;;;;21.53;19.93;;;0.90;93.90;;;;;;4977864;28;20237;-92
2023/03/15 03:03:04;;;;;;;21.43;19.47;;;0.90;93.90;;;;;;4995337;28;20248;-91
2023/03/15 03:05:30;;;;;;;23.67;21.77;;;0.90;94.00;;;;;;4977773;28;20177;-92
2023/03/15 03:07:55;;;;;;;22.27;20.40;;;1.00;94.00;;;;;;4978413;28;20277;-92
2023/03/15 03:10:21;;;;;;;22.47;20.67;;;1.00;94.00;;;;;;4978430;28;20193;-92
2023/03/15 03:12:52;;;;;;;21.23;19.23;;;1.00;94.00;;;;;;4978727;28;20250;-92
2023/03/15 03:15:18;;;;;;;21.37;19.63;;;1.00;93.90;;;;;;4977612;28;20676;-92
2023/03/15 03:17:43;;;;;;;21.60;19.63;;;0.90;93.90;;;;;;4977705;28;20185;-92
2023/03/15 03:20:12;;;;;;;23.50;21.60;;;0.90;93.90;;;;;;4977595;28;20260;-92
2023/03/15 03:22:38;;;;;;;24.87;22.90;;;1.00;94.00;;;;;;4977359;28;20260;-92
2023/03/15 03:25:06;;;;;;;27.60;25.30;;;1.00;93.90;;;;;;4977037;28;20659;-92
2023/03/15 03:27:35;;;;;;;27.57;25.40;;;0.90;93.90;;;;;;4977476;28;20639;-91
2023/03/15 03:30:03;;;;;;;27.20;24.83;;;0.80;93.90;;;;;;4977072;28;20267;-92
2023/03/15 03:32:28;;;;;;;28.03;25.67;;;0.90;94.00;;;;;;4976988;28;20243;-92
2023/03/15 03:34:54;;;;;;;27.97;25.33;;;1.00;94.10;;;;;;4976949;28;20190;-92
2023/03/15 03:37:20;;;;;;;25.90;24.00;;;0.90;94.10;;;;;;4976956;28;20224;-92
2023/03/15 03:39:46;;;;;;;27.03;24.37;;;0.90;94.10;;;;;;4977181;28;20271;-92
2023/03/15 03:42:13;;;;;;;28.43;25.70;;;0.90;94.10;;;;;;4976969;28;20211;-92
2023/03/15 03:44:39;;;;;;;29.07;26.50;;;1.00;94.10;;;;;;4977192;28;20591;-91
2023/03/15 03:47:05;;;;;;;30.07;27.53;;;1.00;94.10;;;;;;4976910;28;20188;-92
2023/03/15 03:49:30;;;;;;;28.07;25.60;;;1.00;94.10;;;;;;4976937;28;20174;-92
2023/03/15 03:51:56;;;;;;;28.67;26.33;;;1.10;94.20;;;;;;4994358;28;20177;-92
2023/03/15 03:54:21;;;;;;;29.00;26.57;;;1.10;94.10;;;;;;4976765;28;20231;-92
2023/03/15 03:56:47;;;;;;;26.83;24.73;;;1.20;94.20;;;;;;4976946;28;20196;-92
2023/03/15 03:59:13;;;;;;;26.17;24.20;;;1.20;94.20;;;;;;4976894;28;20174;-92
2023/03/15 04:01:40;;;;;;;26.97;25.00;;;1.30;94.10;;;;;;4977299;28;20215;-92
2023/03/15 04:04:06;;;;;;;27.47;25.30;;;1.20;94.10;;;;;;4976726;28;20201;-93
2023/03/15 04:06:32;;;;;;;24.30;22.50;;;1.20;94.10;;;;;;4976933;28;20174;-92
2023/03/15 04:08:58;;;;;;;25.77;23.80;;;1.20;94.10;;;;;;4977480;28;20178;-92
2023/03/15 04:11:25;;;;;;;25.83;23.90;;;1.20;94.10;;;;;;4994104;28;20235;-92
2023/03/15 04:13:54;;;;;;;26.20;24.07;;;1.00;93.90;;;;;;4976570;28;20688;-92
2023/03/15 04:16:20;;;;;;;27.90;25.40;;;1.00;93.90;;;;;;4976426;28;20185;-92
2023/03/15 04:18:45;;;;;;;27.63;25.57;;;0.80;93.90;;;;;;4976487;28;20186;-92
2023/03/15 04:21:11;;;;;;;28.83;26.70;;;0.80;93.90;;;;;;4976389;28;20551;-92
2023/03/15 04:23:37;;;;;;;29.93;27.33;;;0.80;93.90;;;;;;4976292;28;20194;-91
2023/03/15 04:26:04;;;;;;;28.63;25.87;;;0.70;94.00;;;;;;4993704;28;20179;-92
2023/03/15 04:28:30;;;;;;;27.93;25.83;;;0.80;94.00;;;;;;4993608;28;20167;-91
2023/03/15 04:30:57;;;;;;;27.90;25.43;;;0.70;94.00;;;;;;4976265;28;20642;-92
2023/03/15 04:33:26;;;;;;;27.77;25.67;;;0.70;94.00;;;;;;4993493;28;20169;-92
2023/03/15 04:35:51;;;;;;;26.50;24.17;;;0.70;94.00;;;;;;4977374;28;20192;-91
2023/03/15 04:38:18;;;;;;;26.30;24.13;;;0.70;94.00;;;;;;4997638;28;20175;-91
2023/03/15 04:40:44;;;;;;;28.03;25.73;;;0.70;94.00;;;;;;4979973;28;20201;-92
2023/03/15 04:43:09;;;;;;;24.93;22.77;;;0.80;94.00;;;;;;4980030;28;20228;-91
2023/03/15 04:45:35;;;;;;;28.40;25.67;;;0.80;93.90;;;;;;4980190;28;20210;-91
2023/03/15 04:48:01;;;;;;;27.27;24.83;;;0.70;93.90;;;;;;4980151;28;20181;-91
2023/03/15 04:50:28;;;;;;;26.93;24.03;;;0.60;93.90;;;;;;4980077;28;20239;-91
2023/03/15 04:52:54;;;;;;;26.03;23.73;;;0.50;93.90;;;;;;4980026;28;20185;-92
2023/03/15 04:55:19;;;;;;;26.30;24.03;;;0.50;93.90;;;;;;4997144;28;20244;-91
2023/03/15 04:57:45;;;;;;;28.23;25.93;;;0.50;93.90;;;;;;4979710;28;20272;-91
2023/03/15 05:00:11;;;;;;;27.40;25.27;;;0.50;93.90;;;;;;4996991;28;20550;-90
2023/03/15 05:02:40;;;;;;;27.93;25.73;;;0.70;94.10;;;;;;4979721;28;20184;-91
2023/03/15 05:05:07;;;;;;;29.30;26.57;;;0.70;94.10;;;;;;4979545;28;20697;-91
2023/03/15 05:07:34;;;;;;;27.60;25.03;;;0.70;94.20;;;;;;4996912;28;20208;-91
2023/03/15 05:10:00;;;;;;;26.60;24.27;;;0.70;94.20;;;;;;4979814;28;20176;-91
2023/03/15 05:12:26;;;;;;;25.60;23.57;;;0.70;94.20;;;;;;4979447;28;20177;-91
2023/03/15 05:14:51;;;;;;;26.63;24.23;;;0.60;94.20;;;;;;4996725;28;20780;-91
2023/03/15 05:17:17;;;;;;;26.77;24.43;;;0.70;94.20;;;;;;4979856;28;20176;-88
2023/03/15 05:19:42;;;;;;;26.23;23.67;;;0.60;94.20;;;;;;4980467;28;20177;-90
2023/03/15 05:22:08;;;;;;;26.87;24.77;;;0.60;94.20;;;;;;4979191;28;20266;-90
2023/03/15 05:24:34;;;;;;;26.47;24.37;;;0.60;94.20;;;;;;4979338;28;20295;-91
2023/03/15 05:26:59;;;;;;;27.73;25.33;;;0.60;94.20;;;;;;4996598;28;20187;-90
2023/03/15 05:29:25;;;;;;;25.87;23.73;;;0.40;94.20;;;;;;4979078;28;20173;-90
2023/03/15 05:31:51;;;;;;;26.67;24.10;;;0.40;94.30;;;;;;4996765;28;20187;-91
2023/03/15 05:34:17;;;;;;;25.33;23.17;;;0.50;94.40;;;;;;4996475;28;20195;-91
2023/03/15 05:36:43;;;;;;;27.93;25.07;;;0.40;94.40;;;;;;4979077;28;20225;-90
2023/03/15 05:39:10;;;;;;;28.93;26.10;;;0.40;94.40;;;;;;4979170;28;20203;-90
2023/03/15 05:41:36;;;;;;;28.37;25.83;;;0.40;94.40;;;;;;4978932;28;20560;-91
2023/03/15 05:44:01;;;;;;;29.90;27.00;;;0.40;94.50;;;;;;4996225;28;20199;-91
2023/03/15 05:46:27;;;;;;;31.23;28.57;;;0.40;94.50;;;;;;4996085;28;20252;-91
2023/03/15 05:48:52;;;;;;;29.97;26.83;;;0.30;94.40;;;;;;4978735;28;20176;-91
2023/03/15 05:51:18;;;;;;;27.40;24.83;;;0.40;94.50;;;;;;4996111;28;20178;-90
2023/03/15 05:53:44;;;;;;;31.63;28.53;;;0.40;94.50;;;;;;4996042;28;20282;-90
2023/03/15 05:56:09;;;;;;;29.23;26.23;;;0.50;94.50;;;;;;4996023;28;20185;-90
2023/03/15 05:58:35;;;;;;;31.77;28.93;;;0.50;94.40;;;;;;4996057;28;20192;-90
2023/03/15 06:01:02;;;;;;;29.77;27.03;;;0.50;94.40;;;;;;4995846;28;20259;-91
2023/03/15 06:03:28;;;;;;;30.47;27.63;;;0.60;94.40;;;;;;4996225;28;20198;-90
2023/03/15 06:05:54;;;;;;;30.90;28.23;;;0.60;94.40;;;;;;4978436;28;20185;-90
2023/03/15 06:08:20;;;;;;;33.57;29.63;;;0.60;94.30;;;;;;4978466;28;20174;-90
2023/03/15 06:10:45;;;;;;;32.60;29.63;;;0.50;94.30;;;;;;4978468;28;20255;-91
2023/03/15 06:13:11;;;;;;;31.43;28.30;;;0.60;94.40;;;;;;4978289;28;20280;-90
2023/03/15 06:15:36;;;;;;;31.87;28.70;;;0.60;94.40;;;;;;4995783;28;20190;-90
2023/03/15 06:18:02;;;;;;;32.63;29.80;;;0.60;94.40;;;;;;4995681;28;20184;-90
2023/03/15 06:20:28;;;;;;;30.53;27.83;;;0.60;94.40;;;;;;4995799;28;20258;-90
2023/03/15 06:22:53;;;;;;;32.87;28.50;;;0.70;94.50;;;;;;4995581;28;20188;-91
2023/03/15 06:25:19;;;;;;;30.40;28.07;;;0.80;94.50;;;;;;4978049;28;20579;-90
2023/03/15 06:27:45;;;;;;;31.43;28.67;;;0.80;94.50;;;;;;4995555;28;20169;-90
2023/03/15 06:30:11;;;;;;;32.87;29.60;;;0.90;94.50;;;;;;4978029;28;20192;-91
2023/03/15 06:32:36;;;;;;;30.70;28.17;;;0.90;94.40;;;;;;4977970;28;20193;-91
2023/03/15 06:35:04;;;;;;;36.60;27.33;;;0.90;94.30;;;;;;4995564;28;20597;-91
2023/03/15 06:37:29;;;;;;;29.03;26.23;;;1.00;94.30;;;;;;4977919;28;20233;-91
2023/03/15 06:39:55;;;;;;;29.27;26.57;;;1.00;94.20;;;;;;4978340;28;20197;-91
2023/03/15 06:42:21;;;;;;;29.80;26.97;;;1.00;94.10;;;;;;4977886;28;20204;-91
2023/03/15 06:44:47;;;;;;;30.03;25.87;;;1.10;94.10;;;;;;4977674;28;20198;-91
2023/03/15 06:47:12;;;;;;;29.07;26.23;;;1.10;94.00;;;;;;4977770;28;20673;-91
2023/03/15 06:49:38;;;;;;;27.27;24.60;;;1.10;94.00;;;;;;4995304;28;20555;-91
2023/03/15 06:52:05;;;;;;;29.37;26.40;;;1.10;93.90;;;;;;4977858;28;20655;-91
2023/03/15 06:54:31;;;;;;;30.47;27.47;;;1.10;93.80;;;;;;4977613;28;20683;-91
2023/03/15 06:56:57;;;;;;;31.33;28.37;;;0.90;93.80;;;;;;4977585;28;20193;-91
2023/03/15 06:59:23;;;;;;;29.20;27.13;;;0.90;94.00;;;;;;4976910;28;20195;-91
2023/03/15 07:01:48;;;;;;;29.43;27.27;;;0.90;94.10;;;;;;4977396;28;20307;-91
2023/03/15 07:04:14;;;;;;;27.37;25.57;;;0.90;94.20;;;;;;4977305;28;20198;-91
2023/03/15 07:06:39;;;;;;;25.47;23.33;;;0.90;94.20;;;;;;4994942;28;20180;-91
2023/03/15 07:09:05;;;;;;;28.27;26.23;;;0.90;94.20;;;;;;4977457;28;20214;-91
2023/03/15 07:11:31;;;;;;;28.23;26.20;;;0.90;94.20;;;;;;4977700;28;20184;-91
2023/03/15 07:13:57;;;;;;;29.53;27.07;;;0.80;94.30;;;;;;4977407;28;20209;-91
2023/03/15 07:16:23;;;;;;;27.33;25.43;;;0.80;94.30;;;;;;4995566;28;20710;-92
2023/03/15 07:18:49;;;;;;;27.53;25.43;;;0.90;94.30;;;;;;4977319;28;20180;-92
2023/03/15 07:21:15;;;;;;;31.73;29.50;;;0.90;94.30;;;;;;4977952;28;20201;-91
2023/03/15 07:23:41;;;;;;;29.93;27.40;;;0.90;94.30;;;;;;4977391;28;20197;-91
2023/03/15 07:26:07;;;;;;;29.90;27.90;;;0.90;94.30;;;;;;4977291;28;20187;-91
2023/03/15 07:28:32;;;;;;;30.83;28.83;;;0.90;94.30;;;;;;4976986;28;20651;-92
2023/03/15 07:31:00;;;;;;;29.37;27.27;;;0.90;94.30;;;;;;4977263;28;20184;-92
2023/03/15 07:33:28;;;;;;;28.87;26.93;;;0.90;94.30;;;;;;4977119;28;20212;-92
2023/03/15 07:35:54;;;;;;;27.20;25.40;;;1.00;94.30;;;;;;4976977;28;20184;-91
2023/03/15 07:38:21;;;;;;;23.93;22.23;;;1.00;94.10;;;;;;4977172;28;20276;-92
2023/03/15 07:40:46;;;;;;;21.63;20.23;;;1.00;93.90;;;;;;4977435;28;20295;-92
2023/03/15 07:43:12;;;;;;;20.10;18.70;;;1.00;93.70;;;;;;4977445;28;20213;-92
2023/03/15 07:45:38;;;;;;;19.97;18.17;;;1.10;93.40;;;;;;4977313;28;20238;-92
2023/03/15 07:48:03;;;;;;;20.47;19.17;;;1.10;93.20;;;;;;4977511;28;20180;-92
2023/03/15 07:50:29;;;;;;;21.83;19.83;;;1.20;93.10;;;;;;4977394;28;20188;-92
2023/03/15 07:52:55;;;;;;;20.70;19.03;;;1.30;93.20;;;;;;4977012;28;20184;-91
2023/03/15 07:55:20;;;;;;;20.60;18.87;;;1.20;93.00;;;;;;4976790;28;20204;-91
2023/03/15 07:57:46;;;;;;;21.10;19.33;;;1.30;93.10;;;;;;4976852;28;20178;-91
2023/03/15 08:00:13;;;;;;;21.63;19.93;;;1.50;93.00;;;;;;4977335;28;20217;-91
2023/03/15 08:02:39;;;;;;;19.77;18.23;;;1.50;92.90;;;;;;4976955;28;20181;-91
2023/03/15 08:05:05;;;;;;;19.73;18.23;;;1.60;92.60;;;;;;4977122;28;20664;-91
2023/03/15 08:07:31;;;;;;;20.73;19.37;;;1.60;92.40;;;;;;4976916;28;20183;-91
2023/03/15 08:09:57;;;;;;;23.10;21.53;;;1.70;92.50;;;;;;4976615;28;20177;-91
2023/03/15 08:12:23;;;;;;;22.20;20.60;;;1.60;92.60;;;;;;4976599;28;20268;-91
2023/03/15 08:14:50;;;;;;;23.60;21.20;;;1.70;92.50;;;;;;4976562;28;20267;-87
2023/03/15 08:17:16;;;;;;;22.13;20.73;;;1.70;92.40;;;;;;4976363;28;20185;-88
2023/03/15 08:19:42;;;;;;;21.00;19.27;;;1.80;92.50;;;;;;4993778;28;20205;-88
2023/03/15 08:22:08;;;;;;;20.10;18.73;;;1.80;92.40;;;;;;4993689;28;20243;-88
2023/03/15 08:24:34;;;;;;;20.60;19.20;;;1.80;92.40;;;;;;4997678;28;20683;-92
2023/03/15 08:27:00;;;;;;;21.97;20.47;;;1.80;92.40;;;;;;4984799;28;20201;-93
2023/03/15 08:29:25;;;;;;;24.37;22.53;;;2.00;92.40;;;;;;4985486;28;20197;-92
2023/03/15 08:31:51;;;;;;;23.40;21.73;;;2.10;92.50;;;;;;4997012;28;20590;-91
2023/03/15 08:34:17;;;;;;;24.53;22.67;;;2.30;92.70;;;;;;4977413;28;20194;-91
2023/03/15 08:36:42;;;;;;;20.77;19.37;;;2.30;92.30;;;;;;4978532;28;20205;-92
2023/03/15 08:39:08;;;;;;;21.23;19.50;;;2.20;91.70;;;;;;4977641;28;20251;-91
2023/03/15 08:41:33;;;;;;;21.03;18.97;;;2.10;91.90;;;;;;4979865;28;20221;-91
2023/03/15 08:43:59;;;;;;;20.53;18.90;;;1.80;91.40;;;;;;4979349;28;20211;-93
2023/03/15 08:46:26;;;;;;;22.47;19.90;;;1.60;91.70;;;;;;4977677;28;20224;-92
2023/03/15 08:48:52;;;;;;;24.03;21.80;;;1.40;92.30;;;;;;4977330;28;20265;-92
2023/03/15 08:51:18;;;;;;;21.67;20.20;;;1.50;92.50;;;;;;4977879;28;20215;-92
2023/03/15 08:53:44;;;;;;;24.67;22.83;;;1.50;92.80;;;;;;4978190;28;20209;-92
2023/03/15 08:56:10;;;;;;;24.70;22.70;;;1.50;92.90;;;;;;4978213;28;20187;-93
2023/03/15 08:58:35;;;;;;;24.23;22.17;;;1.40;93.00;;;;;;4980656;28;20679;-93
2023/03/15 09:01:01;;;;;;;24.07;22.30;;;1.50;93.00;;;;;;4980333;28;20205;-92
2023/03/15 09:03:27;;;;;;;26.80;24.47;;;1.50;93.10;;;;;;4980710;28;20284;-92
2023/03/15 09:05:56;;;;;;;27.90;25.10;;;1.50;93.20;;;;;;4981770;28;20244;-93
2023/03/15 09:08:24;;;;;;;28.90;26.47;;;1.80;93.50;;;;;;4978984;28;20178;-93
2023/03/15 09:10:55;;;;;;;27.40;25.03;;;2.00;93.70;;;;;;4978947;28;20282;-92
2023/03/15 09:13:25;;;;;;;24.67;22.70;;;2.20;93.60;;;;;;4980453;28;20613;-92
2023/03/15 09:15:52;;;;;;;22.50;20.47;;;2.30;93.40;;;;;;4977633;28;20186;-92
2023/03/15 09:18:18;;;;;;;19.50;18.23;;;2.40;92.90;;;;;;4977580;28;20265;-91
2023/03/15 09:20:44;;;;;;;18.77;16.50;;;2.50;92.20;;;;;;4976683;28;20205;-92
2023/03/15 09:23:10;;;;;;;22.57;16.93;;;2.40;91.70;;;;;;4978856;28;20253;-91
2023/03/15 09:25:38;;;;;;;18.53;16.80;;;2.50;91.70;;;;;;4979707;28;20663;-91
2023/03/15 09:28:05;;;;;;;19.57;18.07;;;2.50;91.40;;;;;;4979930;28;20173;-91
2023/03/15 09:30:32;;;;;;;19.20;17.70;;;2.40;91.20;;;;;;4996914;28;20178;-92
2023/03/15 09:32:57;;;;;;;17.73;16.27;;;2.30;91.20;;;;;;4979583;28;20189;-91
2023/03/15 09:35:23;;;;;;;18.43;16.93;;;2.10;90.70;;;;;;4979132;28;20197;-91
2023/03/15 09:37:49;;;;;;;20.30;18.20;;;1.90;90.90;;;;;;4979209;28;20589;-91
2023/03/15 09:40:27;;;;;;;21.90;18.80;;;1.80;91.10;;;;;;4979617;28;20202;-91
2023/03/15 09:42:58;;;;;;;21.53;19.23;;;1.90;91.30;;;;;;4979489;28;20173;-91
2023/03/15 09:45:34;;;;;;;23.63;20.63;;;2.00;91.50;;;;;;4980464;28;20197;-93
2023/03/15 09:48:10;;;;;;;22.37;18.83;;;2.10;91.60;;;;;;4979356;28;20174;-92
2023/03/15 09:50:51;;;;;;;23.77;18.33;;;2.20;91.50;;;;;;4979130;28;20668;-91
2023/03/15 09:53:25;;;;;;;19.67;17.57;;;2.30;91.40;;;;;;4979782;28;20166;-92
2023/03/15 09:55:51;;;;;;;19.27;17.27;;;2.50;91.30;;;;;;4979245;28;20539;-92
2023/03/15 09:58:28;;;;;;;16.37;15.13;;;2.80;91.20;;;;;;4978604;28;20241;-91
2023/03/15 10:00:58;;;;;;;18.93;15.37;;;2.80;89.90;;;;;;4978654;28;20204;-91
2023/03/15 10:03:47;;;;;;;22.93;15.03;;;2.90;89.60;;;;;;4995928;28;20654;-91
2023/03/15 10:06:27;;;;;;;15.87;14.60;;;3.00;89.60;;;;;;4995913;28;20678;-91
2023/03/15 10:08:58;;;;;;;14.10;13.00;;;3.00;89.30;;;;;;4995929;28;20644;-91
2023/03/15 10:11:35;;;;;;;15.03;13.93;;;2.80;89.00;;;;;;4995843;28;20174;-91
2023/03/15 10:14:35;;;;;;;15.73;14.60;;;3.10;89.00;;;;;;4978391;28;20549;-91
2023/03/15 10:17:07;;;;;;;14.80;13.83;;;3.40;89.10;;;;;;4978594;28;20231;-91
2023/03/15 10:19:48;;;;;;;17.73;16.27;;;3.20;88.70;;;;;;4979322;28;20532;-91
2023/03/15 10:22:32;;;;;;;18.47;17.03;;;2.90;89.60;;;;;;4995527;28;20182;-91
2023/03/15 10:25:05;;;;;;;18.90;17.70;;;3.20;90.40;;;;;;4978661;28;20621;-91
2023/03/15 10:28:07;;;;;;;18.27;16.97;;;3.50;90.60;;;;;;4995742;28;20261;-91
2023/03/15 10:30:36;;;;;;;15.73;14.50;;;3.60;90.10;;;;;;4962304;28;20193;-92
2023/03/15 10:33:15;;;;;;;15.30;14.10;;;3.80;89.30;;;;;;5000942;28;20181;-93
2023/03/15 10:50:42;;;;;;;15.23;14.03;;;4.50;85.70;;;;;;4319778;26;20227;-92
2023/03/15 10:53:24;;;;;;;15.17;13.77;;;4.80;85.60;;;;;;4980663;28;20233;-92
2023/03/15 10:56:06;;;;;;;15.57;13.97;;;5.00;85.60;;;;;;5000404;28;20163;-93
2023/03/15 10:58:41;;;;;;;14.10;12.70;;;5.20;85.50;;;;;;5007532;28;20169;-93
2023/03/15 11:01:12;;;;;;;14.77;12.37;;;5.40;85.40;;;;;;4980608;28;20254;-91
2023/03/15 11:03:40;;;;;;;23.43;15.27;;;5.40;84.10;;;;;;4995271;28;20189;-87
2023/03/15 11:06:21;;;;;;;16.00;14.80;;;5.30;83.30;;;;;;4995356;28;20235;-87
2023/03/15 11:08:46;;;;;;;17.87;16.27;;;5.50;82.80;;;;;;4977449;28;20537;-86
2023/03/15 11:11:12;;;;;;;21.73;18.17;;;5.30;81.30;;;;;;4996522;28;20196;-90
2023/03/15 11:13:40;;;;;;;17.57;15.87;;;5.20;80.90;;;;;;4994939;28;20201;-91
2023/03/15 11:16:17;;;;;;;17.57;16.27;;;5.30;82.40;;;;;;4977908;28;20181;-91
2023/03/15 11:18:45;;;;;;;18.60;16.77;;;5.10;80.70;;;;;;4977904;28;20204;-89
2023/03/15 11:21:13;;;;;;;18.50;16.73;;;5.00;80.50;;;;;;4994615;28;20221;-90
2023/03/15 11:23:49;;;;;;;17.07;15.87;;;4.70;81.60;;;;;;4978943;28;20292;-90
2023/03/15 11:26:24;;;;;;;18.50;16.90;;;4.30;83.10;;;;;;4977540;28;20587;-91
2023/03/15 11:28:53;;;;;;;19.23;16.50;;;3.90;84.70;;;;;;4995755;28;20173;-90
2023/03/15 11:31:22;;;;;;;18.40;16.70;;;3.80;85.70;;;;;;4994486;28;20209;-90
2023/03/15 11:33:55;;;;;;;22.57;17.47;;;3.50;86.80;;;;;;4977022;28;20194;-90
2023/03/15 11:36:25;;;;;;;18.57;16.93;;;3.40;87.40;;;;;;4994957;28;20190;-90
2023/03/15 11:38:52;;;;;;;17.90;16.30;;;3.30;88.30;;;;;;4994769;28;20689;-90
2023/03/15 11:41:26;;;;;;;19.30;17.53;;;3.50;88.80;;;;;;4994324;28;20771;-90
2023/03/15 11:44:23;;;;;;;17.30;15.87;;;4.00;89.60;;;;;;4977130;28;20703;-91
2023/03/15 11:47:24;;;;;;;14.13;12.63;;;4.60;89.80;;;;;;4977060;28;20158;-90
2023/03/15 11:49:52;;;;;;;13.70;12.47;;;4.70;88.50;;;;;;4979721;28;20193;-91
2023/03/15 11:52:22;;;;;;;16.13;14.10;;;4.90;84.40;;;;;;4979255;28;20178;-91
2023/03/15 11:54:48;;;;;;;16.53;15.20;;;4.90;82.10;;;;;;4981205;28;20204;-90
2023/03/15 11:57:35;;;;;;;15.20;14.00;;;4.30;81.20;;;;;;4977454;28;20184;-91
2023/03/15 12:00:25;;;;;;;14.73;13.60;;;4.30;84.30;;;;;;4996149;28;20160;-91
2023/03/15 12:02:56;;;;;;;14.90;13.60;;;3.30;86.40;;;;;;4981081;28;20185;-91
2023/03/15 12:05:47;;;;;;;16.83;15.43;;;2.90;87.70;;;;;;4983949;28;20261;-91
2023/03/15 12:08:39;;;;;;;14.60;13.47;;;3.00;89.30;;;;;;4996539;28;20180;-91
2023/03/15 12:11:34;;;;;;;12.87;11.73;;;3.00;88.90;;;;;;4981677;28;20264;-92
2023/03/15 12:13:59;;;;;;;13.30;12.20;;;3.20;87.20;;;;;;4966085;28;20229;-91
2023/03/15 12:16:37;;;;;;;13.00;12.13;;;3.50;85.90;;;;;;4980254;28;20182;-91
2023/03/15 12:19:29;;;;;;;15.50;14.13;;;3.60;86.30;;;;;;4978330;28;20186;-91
2023/03/15 12:22:12;;;;;;;15.33;13.40;;;3.90;87.00;;;;;;4976520;28;20218;-91
2023/03/15 12:24:52;;;;;;;16.53;12.10;;;4.30;86.60;;;;;;5126519;23;20266;-93
2023/03/15 12:27:27;;;;;;;14.93;11.60;;;4.60;85.80;;;;;;4966973;28;20216;-93
2023/03/15 12:30:00;;;;;;;13.47;12.47;;;5.20;86.00;;;;;;4959265;28;20175;-91
2023/03/15 12:32:29;;;;;;;12.47;11.47;;;5.20;84.60;;;;;;4958407;28;20181;-92
2023/03/15 12:34:57;;;;;;;12.90;11.73;;;5.50;83.80;;;;;;4957809;28;20699;-90
2023/03/15 12:37:30;;;;;;;13.53;12.33;;;5.80;83.50;;;;;;4992214;28;20181;-90
2023/03/15 12:40:14;;;;;;;15.77;13.97;;;5.80;81.60;;;;;;4993859;28;20169;-91
2023/03/15 12:42:39;;;;;;;15.37;14.07;;;6.10;80.60;;;;;;4997105;28;20248;-92
2023/03/15 12:45:14;;;;;;;17.60;15.80;;;6.30;78.70;;;;;;4980757;28;20198;-92
2023/03/15 12:48:11;;;;;;;27.77;13.63;;;6.40;77.90;;;;;;4978394;28;20182;-92
2023/03/15 12:50:43;;;;;;;15.37;13.47;;;6.90;77.90;;;;;;4978156;28;20269;-92
2023/03/15 12:53:26;;;;;;;18.50;16.70;;;7.30;78.70;;;;;;4995485;28;20232;-90
2023/03/15 12:55:53;;;;;;;19.27;17.37;;;6.90;75.50;;;;;;4994053;28;20621;-91
2023/03/15 12:58:25;;;;;;;18.07;16.13;;;6.90;73.10;;;;;;4980151;28;20675;-91
2023/03/15 13:00:53;;;;;;;21.80;16.77;;;7.20;74.90;;;;;;4980441;28;20201;-91
2023/03/15 13:03:21;;;;;;;19.87;18.03;;;7.00;72.90;;;;;;4999423;28;20167;-87
2023/03/15 13:06:28;;;;;;;20.57;18.63;;;7.10;71.80;;;;;;4997062;28;20174;-88